DLH59W EDDH-EDLW
Flight info
| Callsign | DLH59W |
|---|---|
| Flight time | 0h 56m |
| Altitude | 22000 |
| Route | HABFU1G HABFU Y348 DOMEG DOMEG2A |
| Aircraft | A20N/M-SDE2E3FGHIRWXY/LB1 |
Departure
| Time | 2026-05-06 17:45 |
|---|---|
| Airport | Hamburg Helmut Schmidt Airport (EDDH) |
Arrival
| Time | 2026-05-06 18:42 |
|---|---|
| Airport | Dortmund Airport (EDLW) |
| Time | Latitude | Longitude | Altitude | Speed | Heading |
|---|---|---|---|---|---|
| 2026-05-06 16:55 | 53.63075 | 10.00375 | 50 ft | 0 kts | 99° |
| 2026-05-06 17:31 | 53.63077 | 10.00359 | 50 ft | 2 kts | 99° |
| 2026-05-06 17:32 | 53.63079 | 10.00337 | 44 ft | 3 kts | 105° |
| 2026-05-06 17:32 | 53.63084 | 10.00312 | 45 ft | 2 kts | 125° |
| 2026-05-06 17:32 | 53.63095 | 10.00292 | 45 ft | 3 kts | 139° |
| 2026-05-06 17:32 | 53.63111 | 10.00268 | 44 ft | 3 kts | 149° |
| 2026-05-06 17:33 | 53.63118 | 10.00262 | 45 ft | 0 kts | 158° |
| 2026-05-06 17:33 | 53.63130 | 10.00256 | 44 ft | 0 kts | 171° |
| 2026-05-06 17:34 | 53.63127 | 10.00257 | 44 ft | 2 kts | 171° |
| 2026-05-06 17:34 | 53.63091 | 10.00258 | 45 ft | 8 kts | 181° |
| 2026-05-06 17:35 | 53.63028 | 10.00220 | 49 ft | 12 kts | 207° |
| 2026-05-06 17:35 | 53.62972 | 10.00160 | 50 ft | 4 kts | 215° |
| 2026-05-06 17:35 | 53.62958 | 10.00144 | 49 ft | 4 kts | 215° |
| 2026-05-06 17:36 | 53.62931 | 10.00102 | 50 ft | 11 kts | 237° |
| 2026-05-06 17:36 | 53.62915 | 9.99976 | 50 ft | 8 kts | 244° |
| 2026-05-06 17:36 | 53.62901 | 9.99926 | 49 ft | 0 kts | 243° |
| 2026-05-06 17:42 | 53.62899 | 9.99919 | 50 ft | 3 kts | 243° |
| 2026-05-06 17:42 | 53.62875 | 9.99843 | 47 ft | 10 kts | 243° |
| 2026-05-06 17:42 | 53.62859 | 9.99786 | 47 ft | 2 kts | 251° |
| 2026-05-06 17:43 | 53.62887 | 9.99728 | 49 ft | 10 kts | 330° |
| 2026-05-06 17:43 | 53.62905 | 9.99710 | 49 ft | 0 kts | 333° |
| 2026-05-06 17:45 | 53.63039 | 9.99595 | 48 ft | 64 kts | 332° |
| 2026-05-06 17:45 | 53.63713 | 9.99014 | 49 ft | 147 kts | 333° |
| 2026-05-06 17:45 | 53.64733 | 9.98160 | 656 ft | 158 kts | 333° |
| 2026-05-06 17:46 | 53.65731 | 9.97315 | 1642 ft | 163 kts | 332° |
| 2026-05-06 17:46 | 53.66756 | 9.96433 | 2475 ft | 176 kts | 332° |
| 2026-05-06 17:46 | 53.67901 | 9.95443 | 3146 ft | 194 kts | 332° |
| 2026-05-06 17:46 | 53.69167 | 9.94350 | 3751 ft | 214 kts | 332° |
| 2026-05-06 17:47 | 53.70473 | 9.93090 | 4442 ft | 205 kts | 319° |
| 2026-05-06 17:47 | 53.71261 | 9.91225 | 4880 ft | 204 kts | 289° |
| 2026-05-06 17:47 | 53.71396 | 9.88603 | 5114 ft | 251 kts | 259° |
| 2026-05-06 17:47 | 53.70912 | 9.85648 | 5122 ft | 265 kts | 251° |
| 2026-05-06 17:48 | 53.70278 | 9.82710 | 5122 ft | 267 kts | 249° |
| 2026-05-06 17:48 | 53.69627 | 9.79775 | 5119 ft | 267 kts | 250° |
| 2026-05-06 17:48 | 53.68996 | 9.76826 | 5121 ft | 267 kts | 250° |
| 2026-05-06 17:48 | 53.68387 | 9.73861 | 5117 ft | 267 kts | 251° |
| 2026-05-06 17:49 | 53.67796 | 9.70891 | 5116 ft | 267 kts | 251° |
| 2026-05-06 17:49 | 53.67218 | 9.67954 | 5117 ft | 267 kts | 251° |
| 2026-05-06 17:49 | 53.66635 | 9.64983 | 5119 ft | 267 kts | 251° |
| 2026-05-06 17:49 | 53.66050 | 9.62010 | 5117 ft | 267 kts | 251° |
| 2026-05-06 17:50 | 53.65348 | 9.59110 | 5116 ft | 267 kts | 238° |
| 2026-05-06 17:50 | 53.64071 | 9.56868 | 5123 ft | 268 kts | 213° |
| 2026-05-06 17:50 | 53.62444 | 9.55338 | 5116 ft | 268 kts | 208° |
| 2026-05-06 17:50 | 53.60795 | 9.53848 | 5116 ft | 268 kts | 208° |
| 2026-05-06 17:51 | 53.59166 | 9.52370 | 5121 ft | 268 kts | 208° |
| 2026-05-06 17:51 | 53.57524 | 9.50871 | 5116 ft | 268 kts | 209° |
| 2026-05-06 17:51 | 53.55885 | 9.49369 | 5118 ft | 268 kts | 209° |
| 2026-05-06 17:51 | 53.54246 | 9.47869 | 5116 ft | 268 kts | 209° |
| 2026-05-06 17:52 | 53.52607 | 9.46370 | 5119 ft | 268 kts | 209° |
| 2026-05-06 17:52 | 53.50987 | 9.44891 | 5117 ft | 268 kts | 209° |
| 2026-05-06 17:52 | 53.49348 | 9.43396 | 5116 ft | 268 kts | 208° |
| 2026-05-06 17:52 | 53.47687 | 9.41883 | 5117 ft | 268 kts | 208° |
| 2026-05-06 17:53 | 53.46045 | 9.40388 | 5116 ft | 268 kts | 208° |
| 2026-05-06 17:53 | 53.44428 | 9.38917 | 5117 ft | 268 kts | 208° |
| 2026-05-06 17:53 | 53.42775 | 9.37414 | 5236 ft | 271 kts | 208° |
| 2026-05-06 17:53 | 53.41109 | 9.35900 | 5907 ft | 274 kts | 208° |
| 2026-05-06 17:54 | 53.39438 | 9.34384 | 7248 ft | 272 kts | 208° |
| 2026-05-06 17:54 | 53.37757 | 9.32859 | 8484 ft | 278 kts | 208° |
| 2026-05-06 17:54 | 53.36036 | 9.31300 | 9294 ft | 284 kts | 208° |
| 2026-05-06 17:54 | 53.34286 | 9.29716 | 9731 ft | 287 kts | 208° |
| 2026-05-06 17:55 | 53.32506 | 9.28293 | 9958 ft | 276 kts | 201° |
| 2026-05-06 17:55 | 53.30732 | 9.27454 | 10079 ft | 255 kts | 191° |
| 2026-05-06 17:55 | 53.29040 | 9.26976 | 10113 ft | 238 kts | 190° |
| 2026-05-06 17:55 | 53.27459 | 9.26516 | 10113 ft | 223 kts | 190° |
| 2026-05-06 17:56 | 53.25960 | 9.26070 | 10121 ft | 220 kts | 191° |
| 2026-05-06 17:56 | 53.24441 | 9.25614 | 10116 ft | 220 kts | 191° |
| 2026-05-06 17:56 | 53.22936 | 9.25164 | 10117 ft | 220 kts | 191° |
| 2026-05-06 17:56 | 53.21431 | 9.24714 | 10117 ft | 220 kts | 191° |
| 2026-05-06 17:57 | 53.19923 | 9.24265 | 10117 ft | 220 kts | 191° |
| 2026-05-06 17:57 | 53.18420 | 9.23818 | 10117 ft | 220 kts | 191° |
| 2026-05-06 17:57 | 53.16911 | 9.23369 | 10125 ft | 221 kts | 191° |
| 2026-05-06 17:57 | 53.15383 | 9.22916 | 10351 ft | 225 kts | 191° |
| 2026-05-06 17:58 | 53.13857 | 9.22463 | 11099 ft | 226 kts | 191° |
| 2026-05-06 17:58 | 53.12320 | 9.22007 | 12266 ft | 223 kts | 191° |
| 2026-05-06 17:58 | 53.10780 | 9.21551 | 13269 ft | 227 kts | 191° |
| 2026-05-06 17:58 | 53.09214 | 9.21087 | 14202 ft | 231 kts | 191° |
| 2026-05-06 17:59 | 53.07609 | 9.20612 | 15140 ft | 234 kts | 190° |
| 2026-05-06 17:59 | 53.06004 | 9.20137 | 16030 ft | 238 kts | 190° |
| 2026-05-06 17:59 | 53.04362 | 9.19652 | 16897 ft | 241 kts | 190° |
| 2026-05-06 17:59 | 53.02693 | 9.19160 | 17743 ft | 245 kts | 190° |
| 2026-05-06 18:00 | 53.01006 | 9.18662 | 18564 ft | 248 kts | 190° |
| 2026-05-06 18:00 | 52.99308 | 9.18162 | 19332 ft | 252 kts | 190° |
| 2026-05-06 18:00 | 52.97555 | 9.17646 | 19781 ft | 257 kts | 190° |
| 2026-05-06 18:00 | 52.95792 | 9.17127 | 19949 ft | 257 kts | 190° |
| 2026-05-06 18:01 | 52.94043 | 9.16546 | 19992 ft | 257 kts | 200° |
| 2026-05-06 18:01 | 52.92554 | 9.14978 | 20003 ft | 255 kts | 229° |
| 2026-05-06 18:01 | 52.91715 | 9.12422 | 20004 ft | 255 kts | 258° |
| 2026-05-06 18:01 | 52.91736 | 9.09515 | 20001 ft | 255 kts | 287° |
| 2026-05-06 18:02 | 52.92612 | 9.06999 | 19999 ft | 256 kts | 316° |
| 2026-05-06 18:02 | 52.94125 | 9.05505 | 20000 ft | 257 kts | 345° |
| 2026-05-06 18:02 | 52.95897 | 9.05302 | 20002 ft | 258 kts | 10° |
| 2026-05-06 18:02 | 52.97559 | 9.06361 | 20002 ft | 258 kts | 36° |
| 2026-05-06 18:03 | 52.98751 | 9.08558 | 20000 ft | 259 kts | 64° |
| 2026-05-06 18:03 | 52.99158 | 9.11436 | 20001 ft | 259 kts | 94° |
| 2026-05-06 18:03 | 52.98662 | 9.14286 | 20001 ft | 259 kts | 123° |
| 2026-05-06 18:03 | 52.97394 | 9.16357 | 20000 ft | 258 kts | 153° |
| 2026-05-06 18:04 | 52.95684 | 9.17123 | 20002 ft | 257 kts | 182° |
| 2026-05-06 18:04 | 52.93956 | 9.16381 | 20010 ft | 269 kts | 211° |
| 2026-05-06 18:04 | 52.92379 | 9.14366 | 20008 ft | 304 kts | 224° |
| 2026-05-06 18:04 | 52.90768 | 9.11808 | 20004 ft | 338 kts | 224° |
| 2026-05-06 18:05 | 52.88991 | 9.09072 | 20001 ft | 368 kts | 223° |
| 2026-05-06 18:05 | 52.86990 | 9.06209 | 20003 ft | 386 kts | 220° |
| 2026-05-06 18:05 | 52.84911 | 9.03390 | 20001 ft | 386 kts | 219° |
| 2026-05-06 18:05 | 52.82810 | 9.00619 | 20001 ft | 386 kts | 219° |
| 2026-05-06 18:06 | 52.80699 | 8.97865 | 20002 ft | 386 kts | 219° |
| 2026-05-06 18:06 | 52.78588 | 8.95116 | 20002 ft | 387 kts | 219° |
| 2026-05-06 18:06 | 52.76476 | 8.92372 | 19999 ft | 387 kts | 219° |
| 2026-05-06 18:06 | 52.74366 | 8.89628 | 20002 ft | 387 kts | 219° |
| 2026-05-06 18:07 | 52.72255 | 8.86881 | 20001 ft | 386 kts | 219° |
| 2026-05-06 18:07 | 52.70141 | 8.84129 | 20000 ft | 387 kts | 219° |
| 2026-05-06 18:07 | 52.68025 | 8.81379 | 20000 ft | 387 kts | 219° |
| 2026-05-06 18:07 | 52.65914 | 8.78638 | 19998 ft | 386 kts | 219° |
| 2026-05-06 18:08 | 52.63804 | 8.75902 | 19998 ft | 386 kts | 218° |
| 2026-05-06 18:08 | 52.61688 | 8.73162 | 20000 ft | 386 kts | 218° |
| 2026-05-06 18:08 | 52.59576 | 8.70431 | 20002 ft | 386 kts | 218° |
| 2026-05-06 18:08 | 52.57460 | 8.67698 | 20001 ft | 386 kts | 218° |
| 2026-05-06 18:09 | 52.55341 | 8.64964 | 20001 ft | 386 kts | 218° |
| 2026-05-06 18:09 | 52.53230 | 8.62244 | 19999 ft | 386 kts | 218° |
| 2026-05-06 18:09 | 52.51132 | 8.59544 | 20001 ft | 386 kts | 218° |
| 2026-05-06 18:09 | 52.49018 | 8.56826 | 19999 ft | 386 kts | 218° |
| 2026-05-06 18:10 | 52.46898 | 8.54103 | 20001 ft | 386 kts | 218° |
| 2026-05-06 18:10 | 52.44785 | 8.51393 | 20000 ft | 386 kts | 218° |
| 2026-05-06 18:10 | 52.42661 | 8.48671 | 19999 ft | 386 kts | 218° |
| 2026-05-06 18:10 | 52.40542 | 8.45960 | 20001 ft | 386 kts | 218° |
| 2026-05-06 18:11 | 52.38418 | 8.43246 | 20001 ft | 386 kts | 218° |
| 2026-05-06 18:11 | 52.36300 | 8.40542 | 19998 ft | 386 kts | 218° |
| 2026-05-06 18:11 | 52.34176 | 8.37834 | 19999 ft | 386 kts | 218° |
| 2026-05-06 18:11 | 52.32080 | 8.35166 | 20002 ft | 386 kts | 218° |
| 2026-05-06 18:12 | 52.29955 | 8.32462 | 20000 ft | 387 kts | 218° |
| 2026-05-06 18:12 | 52.27825 | 8.29757 | 19998 ft | 387 kts | 218° |
| 2026-05-06 18:12 | 52.25698 | 8.27057 | 20000 ft | 387 kts | 218° |
| 2026-05-06 18:12 | 52.23573 | 8.24365 | 20001 ft | 387 kts | 218° |
| 2026-05-06 18:13 | 52.21450 | 8.21677 | 19986 ft | 386 kts | 218° |
| 2026-05-06 18:13 | 52.19331 | 8.18999 | 19710 ft | 383 kts | 218° |
| 2026-05-06 18:13 | 52.17230 | 8.16346 | 19200 ft | 381 kts | 218° |
| 2026-05-06 18:13 | 52.15141 | 8.13711 | 18571 ft | 378 kts | 218° |
| 2026-05-06 18:14 | 52.13074 | 8.11108 | 17947 ft | 374 kts | 218° |
| 2026-05-06 18:14 | 52.11046 | 8.08557 | 17319 ft | 371 kts | 218° |
| 2026-05-06 18:14 | 52.09016 | 8.06006 | 16694 ft | 367 kts | 218° |
| 2026-05-06 18:14 | 52.07003 | 8.03479 | 16073 ft | 364 kts | 218° |
| 2026-05-06 18:15 | 52.05008 | 8.00977 | 15455 ft | 360 kts | 218° |
| 2026-05-06 18:15 | 52.03041 | 7.98515 | 15122 ft | 356 kts | 218° |
| 2026-05-06 18:15 | 52.01068 | 7.96046 | 15015 ft | 359 kts | 218° |
| 2026-05-06 18:15 | 51.99091 | 7.93575 | 14999 ft | 358 kts | 218° |
| 2026-05-06 18:16 | 51.97115 | 7.91109 | 15001 ft | 359 kts | 218° |
| 2026-05-06 18:16 | 51.95137 | 7.88643 | 14998 ft | 359 kts | 218° |
| 2026-05-06 18:16 | 51.93157 | 7.86177 | 14982 ft | 358 kts | 218° |
| 2026-05-06 18:16 | 51.91193 | 7.83735 | 14710 ft | 355 kts | 218° |
| 2026-05-06 18:17 | 51.89239 | 7.81307 | 14212 ft | 353 kts | 218° |
| 2026-05-06 18:17 | 51.87297 | 7.78896 | 13612 ft | 350 kts | 218° |
| 2026-05-06 18:17 | 51.85366 | 7.76503 | 13008 ft | 347 kts | 218° |
| 2026-05-06 18:17 | 51.83454 | 7.74135 | 12403 ft | 344 kts | 218° |
| 2026-05-06 18:18 | 51.81561 | 7.71794 | 11807 ft | 341 kts | 218° |
| 2026-05-06 18:18 | 51.79684 | 7.69474 | 11199 ft | 338 kts | 218° |
| 2026-05-06 18:18 | 51.77824 | 7.67178 | 10605 ft | 335 kts | 218° |
| 2026-05-06 18:18 | 51.76000 | 7.64930 | 10341 ft | 321 kts | 218° |
| 2026-05-06 18:19 | 51.74292 | 7.62825 | 10127 ft | 298 kts | 218° |
| 2026-05-06 18:19 | 51.72698 | 7.60864 | 9961 ft | 279 kts | 217° |
| 2026-05-06 18:19 | 51.71036 | 7.59421 | 9843 ft | 266 kts | 197° |
| 2026-05-06 18:19 | 51.69246 | 7.59126 | 9722 ft | 254 kts | 174° |
| 2026-05-06 18:20 | 51.67554 | 7.59539 | 9595 ft | 244 kts | 171° |
| 2026-05-06 18:20 | 51.65863 | 7.59951 | 9306 ft | 242 kts | 172° |
| 2026-05-06 18:20 | 51.64224 | 7.60340 | 8995 ft | 241 kts | 173° |
| 2026-05-06 18:20 | 51.62577 | 7.60111 | 8671 ft | 238 kts | 202° |
| 2026-05-06 18:21 | 51.61251 | 7.58590 | 8346 ft | 236 kts | 231° |
| 2026-05-06 18:21 | 51.60251 | 7.56509 | 8104 ft | 232 kts | 233° |
| 2026-05-06 18:21 | 51.59302 | 7.54491 | 8018 ft | 221 kts | 233° |
| 2026-05-06 18:21 | 51.58364 | 7.52495 | 7824 ft | 227 kts | 233° |
| 2026-05-06 18:22 | 51.57412 | 7.50470 | 7555 ft | 226 kts | 233° |
| 2026-05-06 18:22 | 51.56464 | 7.48454 | 7285 ft | 226 kts | 233° |
| 2026-05-06 18:22 | 51.55519 | 7.46446 | 7001 ft | 225 kts | 233° |
| 2026-05-06 18:22 | 51.54579 | 7.44449 | 6773 ft | 221 kts | 233° |
| 2026-05-06 18:23 | 51.53662 | 7.42502 | 6421 ft | 216 kts | 233° |
| 2026-05-06 18:23 | 51.52789 | 7.40649 | 5970 ft | 206 kts | 233° |
| 2026-05-06 18:23 | 51.51922 | 7.38811 | 5386 ft | 205 kts | 233° |
| 2026-05-06 18:23 | 51.51068 | 7.37003 | 4872 ft | 201 kts | 232° |
| 2026-05-06 18:24 | 51.49965 | 7.35684 | 4316 ft | 201 kts | 199° |
| 2026-05-06 18:24 | 51.48592 | 7.35669 | 3784 ft | 200 kts | 162° |
| 2026-05-06 18:24 | 51.47754 | 7.36278 | 3455 ft | 199 kts | 153° |
| 2026-05-06 18:24 | 51.46528 | 7.37286 | 3202 ft | 201 kts | 153° |
| 2026-05-06 18:25 | 51.45311 | 7.38371 | 3141 ft | 199 kts | 141° |
| 2026-05-06 18:25 | 51.44581 | 7.40157 | 3144 ft | 186 kts | 103° |
| 2026-05-06 18:25 | 51.44461 | 7.42179 | 3145 ft | 181 kts | 93° |
| 2026-05-06 18:25 | 51.44387 | 7.44190 | 3144 ft | 180 kts | 93° |
| 2026-05-06 18:26 | 51.44317 | 7.46126 | 3144 ft | 170 kts | 93° |
| 2026-05-06 18:26 | 51.44509 | 7.47962 | 3147 ft | 169 kts | 59° |
| 2026-05-06 18:26 | 51.45395 | 7.49147 | 3038 ft | 169 kts | 22° |
| 2026-05-06 18:26 | 51.46461 | 7.49883 | 2937 ft | 167 kts | 26° |
| 2026-05-06 18:27 | 51.47480 | 7.50805 | 2953 ft | 165 kts | 30° |
| 2026-05-06 18:27 | 51.48324 | 7.51903 | 2593 ft | 153 kts | 47° |
| 2026-05-06 18:27 | 51.48953 | 7.53302 | 1996 ft | 157 kts | 58° |
| 2026-05-06 18:27 | 51.49508 | 7.54793 | 1509 ft | 152 kts | 57° |
| 2026-05-06 18:28 | 51.50048 | 7.56166 | 1232 ft | 139 kts | 59° |
| 2026-05-06 18:28 | 51.50502 | 7.57502 | 929 ft | 134 kts | 59° |
| 2026-05-06 18:28 | 51.50947 | 7.58745 | 718 ft | 125 kts | 59° |
| 2026-05-06 18:28 | 51.51384 | 7.59966 | 557 ft | 126 kts | 59° |
| 2026-05-06 18:29 | 51.51800 | 7.61147 | 419 ft | 113 kts | 61° |
| 2026-05-06 18:29 | 51.52249 | 7.62407 | 589 ft | 153 kts | 59° |
| 2026-05-06 18:29 | 51.52810 | 7.64007 | 1167 ft | 171 kts | 60° |
| 2026-05-06 18:29 | 51.53367 | 7.65681 | 1854 ft | 167 kts | 60° |
| 2026-05-06 18:30 | 51.53945 | 7.67236 | 2625 ft | 157 kts | 52° |
| 2026-05-06 18:30 | 51.54716 | 7.68410 | 3360 ft | 153 kts | 30° |
| 2026-05-06 18:30 | 51.55745 | 7.68685 | 3973 ft | 154 kts | 347° |
| 2026-05-06 18:30 | 51.56369 | 7.68281 | 4228 ft | 164 kts | 328° |
| 2026-05-06 18:31 | 51.56847 | 7.67658 | 4373 ft | 173 kts | 312° |
| 2026-05-06 18:31 | 51.57390 | 7.65878 | 4529 ft | 183 kts | 278° |
| 2026-05-06 18:31 | 51.57450 | 7.63921 | 4437 ft | 164 kts | 269° |
| 2026-05-06 18:32 | 51.57367 | 7.62202 | 4321 ft | 147 kts | 261° |
| 2026-05-06 18:32 | 51.57127 | 7.60300 | 4259 ft | 192 kts | 255° |
| 2026-05-06 18:32 | 51.56710 | 7.58331 | 4239 ft | 185 kts | 248° |
| 2026-05-06 18:32 | 51.56162 | 7.56466 | 4236 ft | 179 kts | 242° |
| 2026-05-06 18:33 | 51.55585 | 7.54761 | 4299 ft | 172 kts | 242° |
| 2026-05-06 18:33 | 51.55009 | 7.53126 | 4414 ft | 164 kts | 240° |
| 2026-05-06 18:33 | 51.54440 | 7.51539 | 4362 ft | 166 kts | 240° |
| 2026-05-06 18:33 | 51.53844 | 7.49912 | 4154 ft | 173 kts | 239° |
| 2026-05-06 18:34 | 51.53216 | 7.48230 | 3892 ft | 178 kts | 239° |
| 2026-05-06 18:34 | 51.52578 | 7.46511 | 3636 ft | 180 kts | 239° |
| 2026-05-06 18:34 | 51.51955 | 7.44769 | 3444 ft | 178 kts | 240° |
| 2026-05-06 18:34 | 51.51376 | 7.43072 | 3435 ft | 168 kts | 241° |
| 2026-05-06 18:35 | 51.50786 | 7.41466 | 3319 ft | 168 kts | 239° |
| 2026-05-06 18:35 | 51.50211 | 7.39786 | 3105 ft | 173 kts | 243° |
| 2026-05-06 18:35 | 51.49717 | 7.38165 | 3038 ft | 151 kts | 243° |
| 2026-05-06 18:35 | 51.49171 | 7.36848 | 3017 ft | 132 kts | 221° |
| 2026-05-06 18:36 | 51.48362 | 7.36364 | 2957 ft | 126 kts | 188° |
| 2026-05-06 18:36 | 51.47488 | 7.36143 | 2798 ft | 128 kts | 192° |
| 2026-05-06 18:36 | 51.46620 | 7.35965 | 2695 ft | 127 kts | 169° |
| 2026-05-06 18:36 | 51.45800 | 7.36670 | 2560 ft | 132 kts | 144° |
| 2026-05-06 18:37 | 51.45297 | 7.37808 | 2259 ft | 131 kts | 99° |
| 2026-05-06 18:37 | 51.45318 | 7.39232 | 2043 ft | 127 kts | 84° |
| 2026-05-06 18:37 | 51.45473 | 7.40612 | 2132 ft | 123 kts | 72° |
| 2026-05-06 18:37 | 51.45758 | 7.41948 | 2511 ft | 127 kts | 69° |
| 2026-05-06 18:38 | 51.46137 | 7.43322 | 2747 ft | 145 kts | 63° |
| 2026-05-06 18:38 | 51.46576 | 7.44780 | 2755 ft | 138 kts | 63° |
| 2026-05-06 18:38 | 51.46957 | 7.46112 | 2524 ft | 130 kts | 68° |
| 2026-05-06 18:38 | 51.47242 | 7.47490 | 2210 ft | 130 kts | 72° |
| 2026-05-06 18:39 | 51.47557 | 7.48845 | 1916 ft | 128 kts | 68° |
| 2026-05-06 18:39 | 51.47880 | 7.50146 | 1711 ft | 121 kts | 65° |
| 2026-05-06 18:39 | 51.48258 | 7.51358 | 1650 ft | 128 kts | 60° |
| 2026-05-06 18:40 | 51.49092 | 7.53697 | 1256 ft | 117 kts | 58° |
| 2026-05-06 18:40 | 51.49529 | 7.54845 | 1160 ft | 125 kts | 57° |
| 2026-05-06 18:40 | 51.49968 | 7.55992 | 1017 ft | 116 kts | 57° |
| 2026-05-06 18:40 | 51.50427 | 7.57236 | 935 ft | 138 kts | 59° |
| 2026-05-06 18:41 | 51.50872 | 7.58512 | 749 ft | 127 kts | 59° |
| 2026-05-06 18:41 | 51.51303 | 7.59725 | 524 ft | 121 kts | 59° |
| 2026-05-06 18:41 | 51.51699 | 7.60847 | 414 ft | 106 kts | 60° |
| 2026-05-06 18:41 | 51.51941 | 7.61534 | 406 ft | 54 kts | 59° |
| 2026-05-06 18:42 | 51.52090 | 7.61960 | 409 ft | 39 kts | 60° |
| 2026-05-06 18:42 | 51.52165 | 7.62177 | 410 ft | 9 kts | 62° |
| 2026-05-06 18:42 | 51.52178 | 7.62302 | 410 ft | 14 kts | 115° |
| 2026-05-06 18:42 | 51.52117 | 7.62373 | 410 ft | 0 kts | 151° |
| 2026-05-06 18:44 | 51.52113 | 7.62376 | 410 ft | 3 kts | 151° |
| 2026-05-06 18:44 | 51.52069 | 7.62390 | 409 ft | 9 kts | 185° |
| 2026-05-06 18:44 | 51.52027 | 7.62318 | 410 ft | 10 kts | 251° |
| 2026-05-06 18:45 | 51.51992 | 7.62207 | 413 ft | 12 kts | 238° |
| 2026-05-06 18:45 | 51.51939 | 7.62071 | 408 ft | 17 kts | 239° |
| 2026-05-06 18:45 | 51.51876 | 7.61897 | 410 ft | 19 kts | 240° |
| 2026-05-06 18:45 | 51.51814 | 7.61722 | 410 ft | 15 kts | 240° |
| 2026-05-06 18:46 | 51.51771 | 7.61598 | 416 ft | 13 kts | 241° |
| 2026-05-06 18:46 | 51.51761 | 7.61570 | 417 ft | 2 kts | 241° |
| 2026-05-06 18:46 | 51.51749 | 7.61538 | 419 ft | 3 kts | 228° |
| 2026-05-06 18:46 | 51.51726 | 7.61530 | 419 ft | 3 kts | 175° |
| 2026-05-06 18:47 | 51.51712 | 7.61541 | 417 ft | 2 kts | 148° |
| 2026-05-06 18:47 | 51.51703 | 7.61553 | 422 ft | 1 kts | 140° |
| 2026-05-06 18:47 | 51.51695 | 7.61565 | 425 ft | 3 kts | 138° |
| 2026-05-06 18:47 | 51.51686 | 7.61578 | 418 ft | 0 kts | 136° |